Time;durP1;ratioP1;P1;durP2;ratioP2;P2;SDS_P1;SDS_P2;PMS_P1;PMS_P2;Temp;Humidity;BMP_temperature;BMP_pressure;BME280_temperature;BME280_humidity;BME280_pressure;Samples;Min_cycle;Max_cycle;Signal;HPM_P1;HPM_P2
2022/04/17 00:00:26;;;;;;;1.45;0.60;;;4.10;99.90;;;;;;5013653;28;20034;-79
2022/04/17 00:02:53;;;;;;;1.60;0.82;;;4.10;99.90;;;;;;5013761;28;20033;-79
2022/04/17 00:05:19;;;;;;;0.50;0.50;;;4.10;99.90;;;;;;5013307;28;20026;-80
2022/04/17 00:07:45;;;;;;;0.82;0.60;;;4.10;99.90;;;;;;5013323;28;20080;-81
2022/04/17 00:10:11;;;;;;;1.33;0.50;;;4.00;99.90;;;;;;5013167;28;20404;-81
2022/04/17 00:12:39;;;;;;;0.47;0.47;;;3.90;99.90;;;;;;5013419;28;20083;-80
2022/04/17 00:15:07;;;;;;;0.63;0.63;;;3.80;99.90;;;;;;5013093;28;20061;-81
2022/04/17 00:17:33;;;;;;;1.45;0.57;;;3.70;99.90;;;;;;5013046;28;20028;-81
2022/04/17 00:19:59;;;;;;;0.55;0.55;;;3.70;99.90;;;;;;5012825;28;20042;-82
2022/04/17 00:22:25;;;;;;;0.40;0.40;;;3.70;99.90;;;;;;5013229;28;20421;-80
2022/04/17 00:24:52;;;;;;;0.50;0.50;;;3.70;99.90;;;;;;5012911;28;20072;-81
2022/04/17 00:27:18;;;;;;;0.40;0.40;;;3.70;99.90;;;;;;5012787;28;20488;-80
2022/04/17 00:29:44;;;;;;;1.17;0.60;;;3.70;99.90;;;;;;5012846;28;20034;-80
2022/04/17 00:32:13;;;;;;;0.50;0.50;;;3.80;99.90;;;;;;5012710;28;20029;-81
2022/04/17 00:34:39;;;;;;;2.22;0.50;;;3.80;99.90;;;;;;5012660;28;20030;-82
2022/04/17 00:37:05;;;;;;;0.60;0.50;;;3.80;99.90;;;;;;5012326;28;20085;-82
2022/04/17 00:39:31;;;;;;;1.70;0.70;;;3.80;99.90;;;;;;5012649;28;20041;-82
2022/04/17 00:41:59;;;;;;;0.93;0.60;;;3.80;99.90;;;;;;5012596;28;20026;-82
2022/04/17 00:44:26;;;;;;;0.73;0.60;;;3.80;99.90;;;;;;5012510;28;20045;-76
2022/04/17 00:46:52;;;;;;;0.77;0.50;;;3.80;99.90;;;;;;5012467;28;20014;-80
2022/04/17 00:49:18;;;;;;;0.57;0.57;;;3.80;99.90;;;;;;5012526;28;20109;-81
2022/04/17 00:51:46;;;;;;;0.50;0.50;;;3.80;99.90;;;;;;5009352;28;20050;-81
2022/04/17 00:54:14;;;;;;;1.00;0.50;;;3.80;99.90;;;;;;4996367;28;20409;-81
2022/04/17 00:56:41;;;;;;;0.60;0.60;;;3.80;99.90;;;;;;4992749;28;20061;-81
2022/04/17 00:59:09;;;;;;;1.02;0.60;;;3.80;99.90;;;;;;4992501;28;20034;-81
2022/04/17 01:01:36;;;;;;;1.42;0.60;;;3.70;99.90;;;;;;4993063;28;20041;-81
2022/04/17 01:04:02;;;;;;;1.45;0.50;;;3.70;99.90;;;;;;4992556;28;20030;-83
2022/04/17 01:06:28;;;;;;;0.60;0.60;;;3.70;99.90;;;;;;4992623;28;20486;-81
2022/04/17 01:08:55;;;;;;;0.43;0.43;;;3.60;99.90;;;;;;4992719;28;20117;-79
2022/04/17 01:11:20;;;;;;;0.40;0.40;;;3.60;99.90;;;;;;4975027;28;20019;-80
2022/04/17 01:13:47;;;;;;;1.65;0.50;;;3.60;99.90;;;;;;4992627;28;20072;-80
2022/04/17 01:16:16;;;;;;;0.68;0.52;;;3.60;99.90;;;;;;4992545;28;20018;-79
2022/04/17 01:19:04;;;;;;;0.40;0.40;;;3.50;99.90;;;;;;4992704;28;20371;-80
2022/04/17 01:21:34;;;;;;;0.40;0.40;;;3.50;99.90;;;;;;4992690;28;20548;-83
2022/04/17 01:26:56;;;;;;;1.17;0.70;;;3.50;99.90;;;;;;4992659;28;20081;-82
2022/04/17 01:29:31;;;;;;;0.63;0.60;;;3.60;99.90;;;;;;4992435;28;20041;-81
2022/04/17 01:31:57;;;;;;;3.83;0.80;;;3.60;99.90;;;;;;4992429;28;20026;-81
2022/04/17 01:34:23;;;;;;;1.27;0.40;;;3.60;99.90;;;;;;4974852;28;20381;-81
2022/04/17 01:36:50;;;;;;;0.82;0.50;;;3.60;99.90;;;;;;4992080;28;20109;-80
2022/04/17 01:39:17;;;;;;;0.55;0.50;;;3.50;99.90;;;;;;4992299;28;20114;-81
2022/04/17 01:41:43;;;;;;;0.60;0.60;;;3.40;99.90;;;;;;4992322;28;20045;-82
2022/04/17 01:44:09;;;;;;;0.70;0.50;;;3.40;99.90;;;;;;4992447;28;20105;-80
2022/04/17 01:46:35;;;;;;;0.45;0.45;;;3.40;99.90;;;;;;4992246;28;20041;-82
2022/04/17 01:49:02;;;;;;;0.82;0.60;;;3.40;99.90;;;;;;4992537;28;20026;-84
2022/04/17 01:51:28;;;;;;;0.50;0.50;;;3.40;99.90;;;;;;4996020;28;20062;-83
2022/04/17 01:53:54;;;;;;;0.50;0.50;;;3.30;99.90;;;;;;4996183;28;20070;-83
2022/04/17 01:56:19;;;;;;;0.60;0.60;;;3.40;99.90;;;;;;4996085;28;20022;-84
2022/04/17 01:58:45;;;;;;;1.48;0.60;;;3.40;99.90;;;;;;4996260;28;20038;-84
2022/04/17 02:01:11;;;;;;;2.72;0.50;;;3.40;99.90;;;;;;4996332;28;20128;-85
2022/04/17 02:03:37;;;;;;;5.25;0.77;;;3.40;99.90;;;;;;4996428;28;20023;-83
2022/04/17 02:06:03;;;;;;;0.47;0.47;;;3.40;99.90;;;;;;4996354;28;20360;-85
2022/04/17 02:08:29;;;;;;;3.10;0.60;;;3.30;99.90;;;;;;4996169;28;20474;-84
2022/04/17 02:10:56;;;;;;;1.60;0.60;;;3.40;99.90;;;;;;4996219;28;20027;-83
2022/04/17 02:13:23;;;;;;;0.85;0.70;;;3.40;99.90;;;;;;4996134;28;20041;-83
2022/04/17 02:15:49;;;;;;;1.75;0.50;;;3.40;99.90;;;;;;4995919;28;20026;-84
2022/04/17 02:18:16;;;;;;;0.50;0.50;;;3.40;99.90;;;;;;4995484;28;20068;-74
2022/04/17 02:20:42;;;;;;;0.80;0.57;;;3.50;99.90;;;;;;4995766;28;20490;-74
2022/04/17 02:23:08;;;;;;;0.52;0.52;;;3.50;99.90;;;;;;4995754;28;20025;-73
2022/04/17 02:54:38;;;;;;;0.60;0.60;;;3.20;99.90;;;;;;4991501;28;20062;-74
2022/04/17 02:57:04;;;;;;;0.50;0.50;;;3.20;99.90;;;;;;4975504;28;20026;-73
2022/04/17 02:59:30;;;;;;;0.73;0.50;;;3.20;99.90;;;;;;4958179;28;20398;-73
2022/04/17 03:38:20;;;;;;;0.57;0.50;;;3.30;99.90;;;;;;5191054;23;20525;-74
2022/04/17 03:40:45;;;;;;;0.50;0.50;;;3.30;99.90;;;;;;4955406;29;20035;-75
2022/04/17 03:43:12;;;;;;;1.27;0.55;;;3.30;99.90;;;;;;4955333;29;20615;-75
2022/04/17 03:45:38;;;;;;;0.80;0.68;;;3.30;99.90;;;;;;4955468;29;20023;-73
2022/04/17 03:48:04;;;;;;;0.63;0.63;;;3.30;99.90;;;;;;4955245;29;20081;-74
2022/04/17 03:50:30;;;;;;;1.42;0.70;;;3.30;99.90;;;;;;4955397;29;20475;-77
2022/04/17 03:52:56;;;;;;;0.70;0.60;;;3.30;99.90;;;;;;4955920;29;20077;-74
2022/04/17 03:55:22;;;;;;;1.20;0.50;;;3.30;99.90;;;;;;4955966;29;20114;-76
2022/04/17 03:57:48;;;;;;;0.68;0.50;;;3.30;99.90;;;;;;4955081;29;20038;-77
2022/04/17 04:00:14;;;;;;;1.05;0.50;;;3.30;99.90;;;;;;4954961;29;20049;-77
2022/04/17 04:02:41;;;;;;;0.95;0.52;;;3.30;99.90;;;;;;4955116;29;20023;-76
2022/04/17 04:05:10;;;;;;;0.43;0.43;;;3.30;99.90;;;;;;4954917;29;20062;-77
2022/04/17 04:07:37;;;;;;;0.60;0.60;;;3.30;99.90;;;;;;4955283;29;20078;-77
2022/04/17 04:10:04;;;;;;;0.40;0.40;;;3.30;99.90;;;;;;4955105;29;20051;-74
2022/04/17 04:12:31;;;;;;;0.60;0.60;;;3.30;99.90;;;;;;4954819;28;20038;-72
2022/04/17 04:14:56;;;;;;;0.50;0.45;;;3.30;99.90;;;;;;4955144;29;20127;-72
2022/04/17 04:17:22;;;;;;;0.50;0.50;;;3.40;99.90;;;;;;4954962;29;20383;-72
2022/04/17 04:19:48;;;;;;;0.40;0.40;;;3.40;99.90;;;;;;4954763;29;20043;-75
2022/04/17 04:22:13;;;;;;;0.50;0.50;;;3.60;99.90;;;;;;4954703;29;20051;-75
2022/04/17 04:24:40;;;;;;;0.50;0.50;;;3.80;99.90;;;;;;4955099;29;20031;-76
2022/04/17 04:29:50;;;;;;;2.95;0.40;;;4.40;99.90;;;;;;4954792;29;20046;-72
2022/04/17 04:32:20;;;;;;;0.50;0.40;;;4.90;99.90;;;;;;4954533;29;20023;-71
2022/04/17 04:34:46;;;;;;;;;;;5.30;99.90;;;;;;4955437;29;20062;-72
2022/04/17 04:37:12;;;;;;;0.30;0.30;;;5.60;99.90;;;;;;4954325;28;20389;-72
2022/04/17 04:39:38;;;;;;;0.52;0.50;;;6.00;99.90;;;;;;4954461;29;20502;-75
2022/04/17 04:42:04;;;;;;;1.90;0.55;;;6.50;99.90;;;;;;4953136;29;20438;-77
2022/04/17 04:44:30;;;;;;;0.30;0.30;;;8.00;99.90;;;;;;4954375;29;20031;-78
2022/04/17 04:46:55;;;;;;;0.35;0.30;;;8.30;99.90;;;;;;4954117;29;20024;-78
2022/04/17 04:49:31;;;;;;;1.45;0.88;;;8.20;99.90;;;;;;4969547;28;20069;-75
2022/04/17 04:51:58;;;;;;;1.60;0.80;;;8.20;99.90;;;;;;4971627;28;20497;-70
2022/04/17 04:54:24;;;;;;;0.32;0.32;;;8.40;99.90;;;;;;4972888;28;20022;-68
2022/04/17 04:56:49;;;;;;;0.80;0.40;;;8.60;99.90;;;;;;4972985;28;20513;-68
2022/04/17 04:59:15;;;;;;;0.30;0.30;;;8.70;99.90;;;;;;4972866;28;20101;-70
2022/04/17 05:01:41;;;;;;;0.45;0.38;;;9.00;99.90;;;;;;4972872;28;20468;-78
2022/04/17 05:04:06;;;;;;;0.30;0.30;;;9.20;99.90;;;;;;4968870;28;20022;-78
2022/04/17 05:06:32;;;;;;;0.40;0.30;;;9.50;99.90;;;;;;4955392;28;20023;-80
2022/04/17 05:08:58;;;;;;;0.20;0.20;;;9.70;99.90;;;;;;4961635;28;20022;-71
2022/04/17 05:11:23;;;;;;;0.30;0.30;;;10.00;99.90;;;;;;4964305;28;20033;-75
2022/04/17 05:13:49;;;;;;;0.30;0.30;;;10.20;99.90;;;;;;4967475;28;20150;-75
2022/04/17 05:16:15;;;;;;;0.30;0.30;;;10.40;99.90;;;;;;4967133;28;20442;-76
2022/04/17 05:18:41;;;;;;;0.30;0.30;;;10.60;99.90;;;;;;4972752;28;20122;-75
2022/04/17 05:21:08;;;;;;;0.30;0.30;;;10.90;99.90;;;;;;4972207;28;20473;-74
2022/04/17 05:23:36;;;;;;;4.03;1.02;;;11.10;99.50;;;;;;4972867;28;20027;-73
2022/04/17 05:26:03;;;;;;;0.40;0.40;;;11.30;98.20;;;;;;4972904;28;20027;-74
2022/04/17 05:28:29;;;;;;;0.82;0.40;;;11.50;95.40;;;;;;4973035;28;20034;-75
2022/04/17 05:30:56;;;;;;;0.98;0.40;;;11.60;94.90;;;;;;4973101;28;20426;-75
2022/04/17 05:33:22;;;;;;;0.30;0.30;;;11.90;94.20;;;;;;4973242;28;20057;-76
2022/04/17 05:35:49;;;;;;;0.40;0.40;;;12.00;92.50;;;;;;4973028;28;20470;-75
2022/04/17 05:38:15;;;;;;;0.40;0.40;;;12.10;92.10;;;;;;4972695;28;20126;-75
2022/04/17 05:40:50;;;;;;;0.22;0.22;;;12.40;91.40;;;;;;4972964;28;20039;-75
2022/04/17 05:43:17;;;;;;;0.30;0.30;;;12.60;89.00;;;;;;4972928;28;20050;-75
2022/04/17 05:45:43;;;;;;;0.30;0.30;;;12.80;87.90;;;;;;4973032;28;20031;-75
2022/04/17 05:48:09;;;;;;;0.30;0.30;;;12.90;87.10;;;;;;4972809;28;20023;-75
2022/04/17 05:50:36;;;;;;;0.40;0.30;;;13.20;85.60;;;;;;4973260;28;20031;-75
2022/04/17 05:53:03;;;;;;;0.60;0.30;;;13.30;82.80;;;;;;4973008;28;20023;-75
2022/04/17 05:55:29;;;;;;;2.35;0.50;;;13.40;82.00;;;;;;4972882;28;20153;-75
2022/04/17 05:57:54;;;;;;;0.52;0.30;;;13.50;81.90;;;;;;4972828;28;20425;-75
2022/04/17 06:00:21;;;;;;;0.50;0.20;;;13.50;80.50;;;;;;4972722;28;20035;-79
2022/04/17 06:02:47;;;;;;;1.83;0.55;;;13.60;79.10;;;;;;4972778;28;20031;-71
2022/04/17 06:05:14;;;;;;;0.30;0.30;;;14.10;90.60;;;;;;4972757;28;20054;-72
2022/04/17 06:07:40;;;;;;;0.20;0.20;;;14.70;78.80;;;;;;4972629;28;20054;-72
2022/04/17 06:10:08;;;;;;;0.38;0.38;;;14.60;76.50;;;;;;4972269;28;20023;-72
2022/04/17 06:12:35;;;;;;;0.20;0.20;;;14.40;75.20;;;;;;4972088;28;20502;-76
2022/04/17 06:15:01;;;;;;;0.20;0.20;;;14.30;74.70;;;;;;4972072;28;20042;-76
2022/04/17 06:17:27;;;;;;;0.50;0.22;;;14.20;74.90;;;;;;4969792;28;20034;-76
2022/04/17 06:19:52;;;;;;;0.40;0.25;;;14.20;75.40;;;;;;4972393;28;20506;-76
2022/04/17 06:22:18;;;;;;;0.20;0.20;;;14.20;74.60;;;;;;4966713;28;20135;-76
2022/04/17 06:24:44;;;;;;;0.10;0.10;;;14.30;74.40;;;;;;4972096;28;20058;-76
2022/04/17 06:27:10;;;;;;;0.20;0.20;;;14.20;73.80;;;;;;4971981;28;20379;-76
2022/04/17 06:29:36;;;;;;;0.20;0.20;;;14.30;74.80;;;;;;4972129;28;20078;-76
2022/04/17 06:32:02;;;;;;;0.20;0.20;;;14.30;73.50;;;;;;4972530;28;20050;-76
2022/04/17 06:34:28;;;;;;;0.30;0.20;;;14.40;72.90;;;;;;4972656;28;20027;-75
2022/04/17 06:36:53;;;;;;;0.75;0.20;;;14.30;72.50;;;;;;4975490;28;20038;-79
2022/04/17 06:39:19;;;;;;;2.35;0.20;;;14.40;72.40;;;;;;4976033;28;20031;-75
2022/04/17 06:41:45;;;;;;;0.10;0.10;;;14.40;71.90;;;;;;4976071;28;20027;-73
2022/04/17 06:44:13;;;;;;;0.13;0.13;;;14.30;71.60;;;;;;4975900;28;20030;-74
2022/04/17 06:46:39;;;;;;;0.43;0.20;;;14.20;71.70;;;;;;4958788;28;20023;-74
2022/04/17 06:49:07;;;;;;;0.47;0.10;;;14.10;71.70;;;;;;4975765;28;20048;-74
2022/04/17 06:51:33;;;;;;;1.10;0.20;;;13.80;72.10;;;;;;4975824;28;20019;-74
2022/04/17 06:53:58;;;;;;;0.93;0.20;;;13.60;72.50;;;;;;4975601;28;20165;-75
2022/04/17 06:56:24;;;;;;;1.30;0.17;;;13.50;72.80;;;;;;4975540;28;20031;-74
2022/04/17 06:58:50;;;;;;;0.52;0.30;;;13.30;73.10;;;;;;4975427;28;20046;-74
2022/04/17 07:01:17;;;;;;;0.20;0.20;;;13.40;73.60;;;;;;4975425;28;20512;-74
2022/04/17 07:03:44;;;;;;;1.75;0.22;;;13.40;73.80;;;;;;4975326;28;20457;-74
2022/04/17 07:06:10;;;;;;;1.75;0.20;;;13.50;73.40;;;;;;4975358;28;20030;-73
2022/04/17 07:08:36;;;;;;;1.55;0.20;;;13.50;73.00;;;;;;4975330;28;20029;-73
2022/04/17 07:11:02;;;;;;;1.13;0.25;;;13.40;73.30;;;;;;4975331;28;20026;-79
2022/04/17 07:13:28;;;;;;;2.08;0.20;;;13.40;73.10;;;;;;4975299;28;20023;-74
2022/04/17 07:15:54;;;;;;;0.60;0.30;;;13.40;73.30;;;;;;4975379;28;20113;-68
2022/04/17 07:18:19;;;;;;;2.72;0.50;;;13.40;73.10;;;;;;4975082;28;20511;-69
2022/04/17 07:20:45;;;;;;;1.58;0.40;;;13.60;76.60;;;;;;4975312;28;20066;-69
2022/04/17 07:23:11;;;;;;;2.22;0.50;;;13.80;76.20;;;;;;4975154;28;20474;-70
2022/04/17 07:25:37;;;;;;;0.55;0.50;;;13.80;75.50;;;;;;4974645;28;20091;-69
2022/04/17 07:28:03;;;;;;;0.25;0.20;;;13.80;74.50;;;;;;4974783;28;20031;-69
2022/04/17 07:30:31;;;;;;;0.20;0.20;;;13.70;74.20;;;;;;4974898;28;20030;-69
2022/04/17 07:33:01;;;;;;;0.43;0.20;;;13.70;74.00;;;;;;4974880;28;20023;-69
2022/04/17 07:35:29;;;;;;;0.30;0.20;;;13.60;74.20;;;;;;4974898;28;20122;-76
2022/04/17 07:38:03;;;;;;;1.85;0.45;;;13.60;74.30;;;;;;4974549;28;20113;-73
2022/04/17 07:40:33;;;;;;;7.80;0.50;;;13.50;75.60;;;;;;4974674;28;20125;-78
2022/04/17 07:43:01;;;;;;;10.77;0.57;;;13.70;75.40;;;;;;4974757;28;20541;-74
2022/04/17 07:45:28;;;;;;;3.72;0.30;;;14.00;76.20;;;;;;4974948;28;20030;-74
2022/04/17 07:47:54;;;;;;;0.22;0.20;;;13.90;72.90;;;;;;4974356;28;20360;-74
2022/04/17 07:50:23;;;;;;;0.20;0.20;;;13.70;72.90;;;;;;4974497;28;20027;-74
2022/04/17 07:52:49;;;;;;;2.65;0.20;;;13.50;73.10;;;;;;4974639;28;20046;-74
2022/04/17 07:55:16;;;;;;;3.03;0.63;;;13.20;73.40;;;;;;4974432;28;20051;-73
2022/04/17 08:00:24;;;;;;;1.55;0.30;;;13.10;74.50;;;;;;4974198;28;20054;-73
2022/04/17 08:02:55;;;;;;;0.20;0.20;;;12.90;74.30;;;;;;4974409;28;20544;-73
2022/04/17 08:05:24;;;;;;;3.75;0.30;;;12.90;75.10;;;;;;4974227;28;20157;-73
2022/04/17 08:07:51;;;;;;;8.98;0.60;;;12.90;75.90;;;;;;4974640;28;20081;-73
2022/04/17 08:10:17;;;;;;;8.93;0.77;;;12.90;75.90;;;;;;4974354;28;20061;-73
2022/04/17 08:12:44;;;;;;;2.00;0.20;;;13.00;76.50;;;;;;4974324;28;20058;-74
2022/04/17 08:15:10;;;;;;;1.38;0.20;;;13.00;76.80;;;;;;4974196;28;20041;-73
2022/04/17 08:17:36;;;;;;;0.38;0.30;;;13.10;76.80;;;;;;4974025;28;20030;-73
2022/04/17 08:20:02;;;;;;;5.78;0.40;;;13.10;75.90;;;;;;4974004;28;20035;-73
2022/04/17 08:22:27;;;;;;;0.20;0.20;;;13.00;76.70;;;;;;4973906;28;20034;-73
2022/04/17 08:24:53;;;;;;;2.25;0.20;;;12.90;75.70;;;;;;4974054;28;20030;-73
2022/04/17 08:27:19;;;;;;;0.70;0.30;;;12.80;76.00;;;;;;4974155;28;20031;-73
2022/04/17 08:29:44;;;;;;;1.30;0.22;;;12.80;76.10;;;;;;4973914;28;20035;-73
2022/04/17 08:32:10;;;;;;;0.47;0.20;;;12.70;75.90;;;;;;4956762;28;20061;-73
2022/04/17 08:34:36;;;;;;;8.90;0.73;;;12.60;76.20;;;;;;4973717;28;20378;-73
2022/04/17 08:37:02;;;;;;;0.85;0.30;;;12.60;77.10;;;;;;4973910;28;20047;-73
2022/04/17 08:39:27;;;;;;;2.58;0.30;;;12.70;77.00;;;;;;4973566;28;20168;-74
2022/04/17 08:41:54;;;;;;;4.32;0.50;;;12.70;76.70;;;;;;4973893;28;20031;-73
2022/04/17 08:44:21;;;;;;;0.60;0.28;;;12.80;76.70;;;;;;4973473;28;20471;-73
2022/04/17 08:46:47;;;;;;;5.00;0.45;;;12.80;76.90;;;;;;4973682;28;20018;-73
2022/04/17 08:49:13;;;;;;;0.52;0.30;;;12.70;77.00;;;;;;4973484;28;20058;-74
2022/04/17 08:51:40;;;;;;;0.28;0.20;;;12.70;77.20;;;;;;4973486;28;20019;-74
2022/04/17 08:54:07;;;;;;;9.75;0.40;;;12.70;77.30;;;;;;4973453;28;20031;-74
2022/04/17 08:56:34;;;;;;;2.35;0.52;;;12.70;77.10;;;;;;4973315;28;20030;-74
2022/04/17 08:59:00;;;;;;;0.82;0.30;;;12.70;77.60;;;;;;4972500;28;20041;-74
2022/04/17 09:01:26;;;;;;;10.35;0.50;;;12.80;77.30;;;;;;4973552;28;20026;-74
2022/04/17 09:03:52;;;;;;;2.45;0.20;;;12.80;77.60;;;;;;4973298;28;20378;-74
2022/04/17 09:06:19;;;;;;;2.67;0.60;;;12.80;77.10;;;;;;4973137;28;20027;-74
2022/04/17 09:09:04;;;;;;;0.43;0.20;;;12.80;77.00;;;;;;4973179;28;20031;-74
2022/04/17 09:11:31;;;;;;;0.73;0.30;;;12.90;76.90;;;;;;4973233;28;20111;-73
2022/04/17 09:14:05;;;;;;;0.73;0.30;;;12.90;77.20;;;;;;4973206;28;20019;-74
2022/04/17 09:16:39;;;;;;;0.40;0.20;;;12.90;77.20;;;;;;4973103;28;20085;-74
2022/04/17 09:19:13;;;;;;;6.90;0.38;;;12.90;76.20;;;;;;4973301;28;20038;-74
2022/04/17 09:21:39;;;;;;;10.25;0.60;;;12.90;76.10;;;;;;4973023;28;20031;-73
2022/04/17 09:24:22;;;;;;;3.70;1.23;;;12.90;76.90;;;;;;4973092;28;20042;-74
2022/04/17 09:26:50;;;;;;;18.95;1.20;;;13.00;77.40;;;;;;4973175;28;20030;-74
2022/04/17 09:29:29;;;;;;;7.18;0.40;;;13.20;76.60;;;;;;4972987;28;20019;-74
2022/04/17 09:32:01;;;;;;;6.03;0.43;;;13.30;75.70;;;;;;4973158;28;20443;-74
2022/04/17 09:34:28;;;;;;;4.97;0.30;;;13.30;75.70;;;;;;4972994;28;20045;-74
2022/04/17 09:37:00;;;;;;;0.95;0.40;;;13.30;76.10;;;;;;4972759;28;20054;-74
2022/04/17 09:39:35;;;;;;;2.75;0.30;;;13.40;75.90;;;;;;4972866;28;20053;-74
2022/04/17 09:42:03;;;;;;;18.98;1.05;;;13.40;75.70;;;;;;4973080;28;20042;-74
2022/04/17 09:44:46;;;;;;;2.25;0.25;;;13.40;75.50;;;;;;4955514;28;20037;-74
2022/04/17 09:47:16;;;;;;;2.38;0.20;;;13.40;74.70;;;;;;4955781;28;20027;-74
2022/04/17 09:50:06;;;;;;;6.05;0.38;;;13.40;74.60;;;;;;4955737;28;20035;-72
2022/04/17 09:52:44;;;;;;;12.02;0.70;;;13.40;76.30;;;;;;4973111;28;20501;-73
2022/04/17 09:55:11;;;;;;;3.05;0.32;;;13.50;76.10;;;;;;4973042;28;20041;-76
2022/04/17 09:57:39;;;;;;;23.92;1.20;;;13.60;76.00;;;;;;4972798;28;20029;-75
2022/04/17 10:00:12;;;;;;;6.28;0.40;;;13.60;75.10;;;;;;4973015;28;20038;-76
2022/04/17 10:02:40;;;;;;;2.78;0.30;;;13.60;75.20;;;;;;4973228;28;20026;-77
2022/04/17 10:05:08;;;;;;;2.15;0.30;;;13.60;74.70;;;;;;4972749;28;20074;-76
2022/04/17 10:07:36;;;;;;;11.00;0.82;;;14.10;77.50;;;;;;4972997;28;20431;-80
2022/04/17 10:10:03;;;;;;;2.80;0.30;;;14.10;73.60;;;;;;4972984;28;20026;-76
2022/04/17 10:12:29;;;;;;;8.18;0.55;;;14.00;71.80;;;;;;4977257;28;20027;-78
2022/04/17 10:14:57;;;;;;;5.10;0.43;;;13.90;72.20;;;;;;4980248;28;20097;-79
2022/04/17 10:17:23;;;;;;;8.05;1.15;;;13.90;72.80;;;;;;4976487;28;20110;-76
2022/04/17 10:19:50;;;;;;;10.68;1.83;;;13.90;73.00;;;;;;4976227;28;20118;-76
2022/04/17 10:22:23;;;;;;;5.18;0.60;;;14.00;73.50;;;;;;4976231;28;20033;-77
2022/04/17 10:24:54;;;;;;;3.58;0.60;;;14.10;72.70;;;;;;4976239;28;20483;-77
2022/04/17 10:27:26;;;;;;;6.90;0.77;;;14.10;71.90;;;;;;4976124;28;20102;-77
2022/04/17 10:29:55;;;;;;;7.90;0.60;;;14.00;72.40;;;;;;4976167;28;20031;-76
2022/04/17 10:32:29;;;;;;;11.75;0.52;;;14.10;72.20;;;;;;4975987;28;20023;-76
2022/04/17 10:35:09;;;;;;;2.22;0.40;;;14.20;72.40;;;;;;4976104;28;20034;-77
2022/04/17 10:38:08;;;;;;;8.02;0.40;;;14.10;71.70;;;;;;4975666;28;20078;-77
2022/04/17 10:40:34;;;;;;;0.47;0.30;;;14.10;71.50;;;;;;4955352;28;20045;-79
2022/04/17 10:43:01;;;;;;;3.35;0.47;;;14.20;71.50;;;;;;4975995;28;20037;-78
2022/04/17 10:45:31;;;;;;;1.95;0.32;;;14.20;70.80;;;;;;4975734;28;20023;-79
2022/04/17 10:48:05;;;;;;;9.82;0.40;;;14.20;70.50;;;;;;4975831;28;20037;-79
2022/04/17 10:50:40;;;;;;;0.38;0.30;;;14.30;70.20;;;;;;4975623;28;20034;-78
2022/04/17 10:53:48;;;;;;;2.20;0.40;;;14.20;70.00;;;;;;4976102;28;20033;-78
2022/04/17 10:56:16;;;;;;;6.07;0.40;;;14.30;69.50;;;;;;4946993;28;20038;-79
2022/04/17 10:59:00;;;;;;;31.38;2.65;;;14.30;69.00;;;;;;4975706;28;20097;-79
2022/04/17 11:01:41;;;;;;;10.15;0.47;;;14.30;69.60;;;;;;4975826;28;20027;-79
2022/04/17 11:04:26;;;;;;;3.92;0.43;;;14.30;69.60;;;;;;4975587;28;20034;-79
2022/04/17 11:06:56;;;;;;;1.92;0.30;;;14.30;69.00;;;;;;4975597;28;20386;-77
2022/04/17 11:09:24;;;;;;;1.10;0.20;;;14.30;68.30;;;;;;4975996;28;20058;-77
2022/04/17 11:11:50;;;;;;;0.70;0.20;;;14.30;68.00;;;;;;4975458;28;20474;-77
2022/04/17 11:14:19;;;;;;;1.92;0.22;;;14.20;67.50;;;;;;4975266;28;20027;-77
2022/04/17 11:16:53;;;;;;;2.45;0.38;;;14.20;68.00;;;;;;4975681;28;20104;-77
2022/04/17 11:19:27;;;;;;;3.20;0.45;;;14.30;69.20;;;;;;4975097;28;20045;-77
2022/04/17 11:21:56;;;;;;;5.88;0.60;;;14.40;68.90;;;;;;4973969;28;20480;-76
2022/04/17 11:24:23;;;;;;;0.35;0.20;;;14.50;68.40;;;;;;4975041;28;20154;-72
2022/04/17 11:26:55;;;;;;;4.05;0.40;;;14.60;68.10;;;;;;4975039;28;20073;-71
2022/04/17 11:29:48;;;;;;;0.90;0.30;;;14.60;67.60;;;;;;4975138;28;20019;-76
2022/04/17 11:32:16;;;;;;;10.25;0.50;;;14.60;67.60;;;;;;4975367;28;20506;-73
2022/04/17 11:34:44;;;;;;;8.93;0.45;;;14.60;67.20;;;;;;4975089;28;20451;-69
2022/04/17 11:37:10;;;;;;;2.42;0.70;;;14.60;67.00;;;;;;4974876;28;20046;-70
2022/04/17 11:39:36;;;;;;;7.95;0.80;;;14.80;72.80;;;;;;4974685;28;20437;-72
2022/04/17 11:42:04;;;;;;;5.22;0.73;;;15.30;74.30;;;;;;4974879;28;20042;-71
2022/04/17 11:44:30;;;;;;;10.02;0.80;;;15.70;72.80;;;;;;4974651;28;20378;-71
2022/04/17 11:46:56;;;;;;;17.10;1.30;;;16.10;72.30;;;;;;4974708;28;20038;-77
2022/04/17 11:49:22;;;;;;;2.40;0.38;;;16.20;71.20;;;;;;4974656;28;20058;-74
2022/04/17 11:51:48;;;;;;;4.22;0.47;;;16.20;65.40;;;;;;4974588;28;20056;-74
2022/04/17 11:54:30;;;;;;;5.78;0.60;;;15.90;64.20;;;;;;4974830;28;20041;-74
2022/04/17 11:56:56;;;;;;;18.50;0.80;;;15.60;63.70;;;;;;4974763;28;20026;-74
2022/04/17 11:59:23;;;;;;;7.35;0.40;;;15.40;64.50;;;;;;4974425;28;20548;-74
2022/04/17 12:02:08;;;;;;;6.15;0.43;;;15.20;64.80;;;;;;4974460;28;20031;-74
2022/04/17 12:04:33;;;;;;;7.45;0.50;;;15.10;63.60;;;;;;4974226;28;20478;-74
2022/04/17 12:06:59;;;;;;;2.60;0.40;;;14.80;64.00;;;;;;4974440;28;20053;-74
2022/04/17 12:09:25;;;;;;;7.88;0.60;;;14.80;64.30;;;;;;4974369;28;20035;-74
2022/04/17 12:11:51;;;;;;;17.30;0.95;;;14.70;65.10;;;;;;4974289;28;20033;-74
2022/04/17 12:14:32;;;;;;;8.23;0.40;;;14.70;64.80;;;;;;4974435;28;20089;-74
2022/04/17 12:16:58;;;;;;;13.43;1.00;;;14.70;64.40;;;;;;4974368;28;20035;-74
2022/04/17 12:19:29;;;;;;;17.00;0.88;;;14.70;65.40;;;;;;4973866;28;20034;-74
2022/04/17 12:21:55;;;;;;;6.95;0.60;;;14.70;66.20;;;;;;4974441;28;20030;-73
2022/04/17 12:24:22;;;;;;;19.08;0.82;;;14.70;68.90;;;;;;4974012;28;20058;-74
2022/04/17 12:26:49;;;;;;;9.05;1.45;;;15.30;68.30;;;;;;4973978;28;20055;-74
2022/04/17 12:29:16;;;;;;;4.07;0.43;;;15.20;64.60;;;;;;4974016;28;20073;-74
2022/04/17 12:31:41;;;;;;;2.95;0.40;;;15.00;64.80;;;;;;4973912;28;20023;-73
2022/04/17 12:34:22;;;;;;;1.25;0.50;;;14.90;64.70;;;;;;4973707;28;20565;-71
2022/04/17 12:36:48;;;;;;;;;;;14.80;64.40;;;;;;4973988;28;20057;-70
2022/04/17 12:39:14;;;;;;;6.13;0.40;;;14.80;64.10;;;;;;4973719;28;19917;-70
2022/04/17 12:41:42;;;;;;;13.02;0.60;;;14.70;64.90;;;;;;4973491;28;20034;-70
2022/04/17 12:44:09;;;;;;;15.15;0.98;;;14.60;65.20;;;;;;4976857;28;20081;-70
2022/04/17 12:46:36;;;;;;;8.23;0.55;;;14.70;64.80;;;;;;4973474;28;20133;-70
2022/04/17 12:49:12;;;;;;;5.15;0.40;;;14.60;65.20;;;;;;4973710;28;20038;-70
2022/04/17 12:51:40;;;;;;;17.92;1.40;;;14.50;65.10;;;;;;4973477;28;20026;-69
2022/04/17 12:54:10;;;;;;;7.10;0.68;;;14.50;65.10;;;;;;4973453;28;20513;-70
2022/04/17 12:56:37;;;;;;;1.83;0.30;;;14.50;65.70;;;;;;4973614;28;20031;-70
2022/04/17 12:59:03;;;;;;;5.18;0.50;;;14.50;65.40;;;;;;4973366;28;20552;-70
2022/04/17 13:01:33;;;;;;;5.78;0.98;;;14.50;65.30;;;;;;4973569;28;20061;-70
2022/04/17 13:04:09;;;;;;;22.45;1.23;;;14.50;65.30;;;;;;4973655;28;20027;-70
2022/04/17 13:06:35;;;;;;;4.95;0.60;;;14.50;65.40;;;;;;4973544;28;20030;-69
2022/04/17 13:09:26;;;;;;;2.28;0.40;;;14.40;65.40;;;;;;4973247;28;20493;-69
2022/04/17 13:11:55;;;;;;;10.18;2.17;;;14.40;65.60;;;;;;4973306;28;20027;-69
2022/04/17 13:14:22;;;;;;;4.60;0.43;;;14.40;65.70;;;;;;4973257;28;20117;-69
2022/04/17 13:16:48;;;;;;;7.80;1.38;;;14.40;66.30;;;;;;4972858;28;20031;-69
2022/04/17 13:19:14;;;;;;;5.55;0.60;;;14.30;66.30;;;;;;4973030;28;20034;-69
2022/04/17 13:21:40;;;;;;;12.38;0.70;;;14.40;66.50;;;;;;4973111;28;20105;-70
2022/04/17 13:24:06;;;;;;;5.00;0.50;;;14.40;66.70;;;;;;4973394;28;20106;-70
2022/04/17 13:26:31;;;;;;;14.05;1.02;;;14.30;65.90;;;;;;4973008;28;20085;-69
2022/04/17 13:28:57;;;;;;;21.42;1.13;;;14.30;65.90;;;;;;4973206;28;20041;-69
2022/04/17 13:31:23;;;;;;;20.63;0.88;;;14.30;66.30;;;;;;4973119;28;20388;-70
2022/04/17 13:33:48;;;;;;;31.40;2.22;;;14.30;66.90;;;;;;4972891;28;20037;-70
2022/04/17 13:36:14;;;;;;;5.75;0.50;;;14.30;67.10;;;;;;4972970;28;20035;-72
2022/04/17 13:38:40;;;;;;;3.83;0.55;;;14.30;65.80;;;;;;4972765;28;20043;-72
2022/04/17 13:41:07;;;;;;;7.25;0.60;;;14.30;66.30;;;;;;4972933;28;20070;-69
2022/04/17 13:43:33;;;;;;;17.17;1.55;;;14.30;68.20;;;;;;4972457;28;20611;-67
2022/04/17 13:45:58;;;;;;;13.05;0.60;;;14.40;66.50;;;;;;4974760;28;20031;-67
2022/04/17 13:48:25;;;;;;;17.35;1.17;;;14.40;66.20;;;;;;4977351;28;20431;-67
2022/04/17 13:50:51;;;;;;;4.75;0.70;;;14.30;66.40;;;;;;4977288;28;20031;-67
2022/04/17 13:53:17;;;;;;;8.88;0.50;;;14.30;66.50;;;;;;4977027;28;20027;-66
2022/04/17 13:55:43;;;;;;;13.75;0.98;;;14.20;66.00;;;;;;4976631;28;20031;-68
2022/04/17 13:58:09;;;;;;;15.13;1.67;;;14.10;66.40;;;;;;4976797;28;20059;-68
2022/04/17 14:00:35;;;;;;;10.50;0.68;;;14.10;66.50;;;;;;4976747;28;20077;-68
2022/04/17 14:03:01;;;;;;;13.18;0.93;;;14.00;67.10;;;;;;4976624;28;20065;-68
2022/04/17 14:05:27;;;;;;;5.75;0.60;;;14.10;68.10;;;;;;4976269;28;20030;-67
2022/04/17 14:07:53;;;;;;;14.52;0.73;;;14.10;67.40;;;;;;4973114;28;20030;-67